createdAt,value
2023-07-12T00:02:15.499Z,96.70
2023-07-12T00:04:51.528Z,96.50
2023-07-12T00:07:27.565Z,96.40
2023-07-12T00:10:04.140Z,96.50
2023-07-12T00:12:40.014Z,96.50
2023-07-12T00:15:26.102Z,96.60
2023-07-12T00:18:02.100Z,96.40
2023-07-12T00:20:38.402Z,96.40
2023-07-12T00:23:16.769Z,96.40
2023-07-12T00:25:52.738Z,96.50
2023-07-12T00:28:29.101Z,96.40
2023-07-12T00:31:05.105Z,96.50
2023-07-12T00:33:42.702Z,96.50
2023-07-12T00:36:26.197Z,96.60
2023-07-12T00:39:04.257Z,96.70
2023-07-12T00:42:16.938Z,96.80
2023-07-12T00:44:57.569Z,97.10
2023-07-12T00:47:34.367Z,97.10
2023-07-12T00:50:21.100Z,97.00
2023-07-12T00:52:57.325Z,97.00
2023-07-12T00:56:07.968Z,96.60
2023-07-12T00:58:48.599Z,96.50
2023-07-12T01:01:28.184Z,96.50
2023-07-12T01:04:05.970Z,96.40
2023-07-12T01:06:41.988Z,96.40
2023-07-12T01:09:19.146Z,96.40
2023-07-12T01:11:56.000Z,96.50
2023-07-12T01:14:35.320Z,96.50
2023-07-12T01:17:15.120Z,96.50
2023-07-12T01:19:51.265Z,96.50
2023-07-12T01:22:27.250Z,96.00
2023-07-12T01:25:05.186Z,96.70
2023-07-12T01:27:41.320Z,96.60
2023-07-12T01:30:20.221Z,96.60
2023-07-12T01:32:56.389Z,96.50
2023-07-12T01:35:33.282Z,96.70
2023-07-12T01:38:09.240Z,96.80
2023-07-12T01:40:45.179Z,96.70
2023-07-12T01:43:21.434Z,96.60
2023-07-12T01:45:57.479Z,96.40
2023-07-12T01:48:33.619Z,96.50
2023-07-12T01:51:09.846Z,96.70
2023-07-12T01:53:46.181Z,96.60
2023-07-12T01:56:23.096Z,96.00
2023-07-12T01:59:01.120Z,95.60
2023-07-12T02:01:37.326Z,95.60
2023-07-12T02:04:13.311Z,96.00
2023-07-12T02:06:49.226Z,96.00
2023-07-12T02:09:28.285Z,96.00
2023-07-12T02:12:04.710Z,96.00
2023-07-12T02:14:45.549Z,96.00
2023-07-12T02:17:21.445Z,96.00
2023-07-12T02:19:57.484Z,96.10
2023-07-12T02:22:35.989Z,96.00
2023-07-12T02:25:13.811Z,96.00
2023-07-12T02:27:51.216Z,96.00
2023-07-12T02:30:29.916Z,96.00
2023-07-12T02:33:06.592Z,96.00
2023-07-12T02:35:42.815Z,96.10
2023-07-12T02:38:18.692Z,95.60
2023-07-12T02:40:54.571Z,96.00
2023-07-12T02:43:30.462Z,96.00
2023-07-12T02:46:06.439Z,96.00
2023-07-12T02:48:42.581Z,95.90
2023-07-12T02:51:18.538Z,96.00
2023-07-12T02:53:54.468Z,95.90
2023-07-12T02:56:30.451Z,95.90
2023-07-12T02:59:06.410Z,95.90
2023-07-12T03:01:42.843Z,95.90
2023-07-12T03:04:19.300Z,96.00
2023-07-12T03:06:55.244Z,95.90
2023-07-12T03:09:31.464Z,96.00
2023-07-12T03:12:07.889Z,96.00
2023-07-12T03:14:43.812Z,96.00
2023-07-12T03:17:20.128Z,96.00
2023-07-12T03:19:56.202Z,96.00
2023-07-12T03:22:32.089Z,96.10
2023-07-12T03:25:08.538Z,96.10
2023-07-12T03:27:44.471Z,96.10
2023-07-12T03:30:20.497Z,96.10
2023-07-12T03:32:56.708Z,96.10
2023-07-12T03:35:32.608Z,96.20
2023-07-12T03:38:08.531Z,96.20
2023-07-12T03:40:47.883Z,96.20
2023-07-12T03:43:24.791Z,96.20
2023-07-12T03:46:01.234Z,96.20
2023-07-12T03:48:37.880Z,96.20
2023-07-12T03:51:15.653Z,96.20
2023-07-12T03:53:51.683Z,96.20
2023-07-12T03:56:27.623Z,96.20
2023-07-12T03:59:03.895Z,96.30
2023-07-12T04:01:39.941Z,96.50
2023-07-12T04:04:16.492Z,96.20
2023-07-12T04:06:52.415Z,96.20
2023-07-12T04:09:28.538Z,96.20
2023-07-12T04:12:05.209Z,96.20
2023-07-12T04:14:41.130Z,96.40
2023-07-12T04:17:17.053Z,96.30
2023-07-12T04:19:53.031Z,96.50
2023-07-12T04:22:29.311Z,96.50
2023-07-12T04:25:05.903Z,96.50
2023-07-12T04:27:42.055Z,96.40
2023-07-12T04:30:18.171Z,96.40
2023-07-12T04:32:54.160Z,96.40
2023-07-12T04:35:30.188Z,96.40
2023-07-12T04:38:06.163Z,96.20
2023-07-12T04:40:42.100Z,96.10
2023-07-12T04:43:18.053Z,96.20
2023-07-12T04:45:54.162Z,96.20
2023-07-12T04:48:31.574Z,96.10
2023-07-12T04:51:08.335Z,96.10
2023-07-12T04:53:48.726Z,96.00
2023-07-12T04:56:24.780Z,95.80
2023-07-12T04:59:00.676Z,95.40
2023-07-12T05:01:36.687Z,95.10
2023-07-12T05:04:14.620Z,94.90
2023-07-12T05:06:53.052Z,94.60
2023-07-12T05:09:29.402Z,94.60
2023-07-12T05:12:06.207Z,95.30
2023-07-12T05:14:42.247Z,95.40
2023-07-12T05:17:18.204Z,95.40
2023-07-12T05:19:54.210Z,95.20
2023-07-12T05:22:30.288Z,95.20
2023-07-12T05:25:07.592Z,95.10
2023-07-12T05:27:43.671Z,94.90
2023-07-12T05:30:19.622Z,95.00
2023-07-12T05:32:55.736Z,94.90
2023-07-12T05:35:31.805Z,94.00
2023-07-12T05:38:08.657Z,94.30
2023-07-12T05:40:44.648Z,94.40
2023-07-12T05:43:28.672Z,94.20
2023-07-12T05:46:05.068Z,93.10
2023-07-12T05:48:41.171Z,93.10
2023-07-12T05:51:17.494Z,92.60
2023-07-12T05:53:53.503Z,92.70
2023-07-12T05:56:29.567Z,92.50
2023-07-12T05:59:05.795Z,90.40
2023-07-12T06:01:41.777Z,92.30
2023-07-12T06:04:18.833Z,92.60
2023-07-12T06:06:57.082Z,92.20
2023-07-12T06:09:33.054Z,92.50
2023-07-12T06:12:09.751Z,88.50
2023-07-12T06:14:46.006Z,84.70
2023-07-12T06:17:22.059Z,90.60
2023-07-12T06:19:58.120Z,91.40
2023-07-12T06:22:34.195Z,91.80
2023-07-12T06:25:11.259Z,89.50
2023-07-12T06:27:47.253Z,86.30
2023-07-12T06:30:23.787Z,88.90
2023-07-12T06:32:59.920Z,89.40
2023-07-12T06:35:35.902Z,88.30
2023-07-12T06:38:13.034Z,77.20
2023-07-12T06:40:49.273Z,76.40
2023-07-12T06:43:26.122Z,81.30
2023-07-12T06:46:02.373Z,79.70
2023-07-12T06:48:38.390Z,81.90
2023-07-12T06:51:14.387Z,82.10
2023-07-12T06:53:50.500Z,79.60
2023-07-12T06:56:26.487Z,62.80
2023-07-12T06:59:02.447Z,58.30
2023-07-12T07:01:38.765Z,61.10
2023-07-12T07:04:15.252Z,63.40
2023-07-12T07:06:51.918Z,60.00
2023-07-12T07:09:28.259Z,59.60
2023-07-12T07:12:06.181Z,58.70
2023-07-12T07:14:42.519Z,54.00
2023-07-12T07:17:18.494Z,50.70
2023-07-12T07:19:54.566Z,51.40
2023-07-12T07:22:30.591Z,51.30
2023-07-12T07:25:15.876Z,55.20
2023-07-12T07:27:53.783Z,54.40
2023-07-12T07:30:31.145Z,52.10
2023-07-12T07:33:07.152Z,48.50
2023-07-12T07:35:43.097Z,49.20
2023-07-12T07:38:19.251Z,50.10
2023-07-12T07:40:56.467Z,48.90
2023-07-12T07:43:32.786Z,49.40
2023-07-12T07:46:10.006Z,48.60
2023-07-12T07:48:47.056Z,49.20
2023-07-12T07:51:25.904Z,51.70
2023-07-12T07:54:01.910Z,50.30
2023-07-12T07:56:37.865Z,47.10
2023-07-12T07:59:13.835Z,47.00
2023-07-12T08:01:50.218Z,47.30
2023-07-12T08:04:26.592Z,45.70
2023-07-12T08:07:03.896Z,45.90
2023-07-12T08:09:39.921Z,46.40
2023-07-12T08:12:16.016Z,46.30
2023-07-12T08:14:51.943Z,45.60
2023-07-12T08:17:29.676Z,48.10
2023-07-12T08:20:09.323Z,46.00
2023-07-12T08:22:45.621Z,44.80
2023-07-12T08:25:22.216Z,44.10
2023-07-12T08:27:58.136Z,44.20
2023-07-12T08:30:34.103Z,44.00
2023-07-12T08:33:10.406Z,44.70
2023-07-12T08:35:48.845Z,42.90
2023-07-12T08:38:25.753Z,43.20
2023-07-12T08:41:01.871Z,42.20
2023-07-12T08:43:37.969Z,42.30
2023-07-12T08:46:25.045Z,41.30
2023-07-12T08:49:01.988Z,43.00
2023-07-12T08:51:38.016Z,41.90
2023-07-12T08:54:35.354Z,42.60
2023-07-12T08:57:19.028Z,41.90
2023-07-12T09:00:06.852Z,41.00
2023-07-12T09:02:42.901Z,40.00
2023-07-12T09:05:25.401Z,40.00
2023-07-12T09:08:20.031Z,41.30
2023-07-12T09:10:57.549Z,41.50
2023-07-12T09:13:39.460Z,41.00
2023-07-12T09:16:31.909Z,39.50
2023-07-12T09:19:20.742Z,38.50
2023-07-12T09:22:02.002Z,38.30
2023-07-12T09:24:44.989Z,38.00
2023-07-12T09:27:29.166Z,38.10
2023-07-12T09:30:06.915Z,37.80
2023-07-12T09:32:43.145Z,38.10
2023-07-12T09:35:46.146Z,37.70
2023-07-12T09:38:26.235Z,36.60
2023-07-12T09:41:11.766Z,36.00
2023-07-12T09:43:56.492Z,36.40
2023-07-12T09:46:40.629Z,36.80
2023-07-12T09:49:22.959Z,36.70
2023-07-12T09:52:29.398Z,36.70
2023-07-12T09:55:17.603Z,36.40
2023-07-12T09:58:12.860Z,36.10
2023-07-12T10:01:00.298Z,37.00
2023-07-12T10:03:46.966Z,34.70
2023-07-12T10:06:41.637Z,34.30
2023-07-12T10:09:33.716Z,34.70
2023-07-12T10:12:24.855Z,34.20
2023-07-12T10:15:01.462Z,34.00
2023-07-12T10:17:42.251Z,33.80
2023-07-12T10:20:23.365Z,34.10
2023-07-12T10:22:59.993Z,34.40
2023-07-12T10:25:38.480Z,34.20
2023-07-12T10:29:20.664Z,34.50
2023-07-12T10:32:01.571Z,34.60
2023-07-12T10:34:45.965Z,33.60
2023-07-12T10:37:51.955Z,34.10
2023-07-12T10:40:38.296Z,33.40
2023-07-12T10:43:23.691Z,33.40
2023-07-12T10:46:22.989Z,33.20
2023-07-12T10:49:00.971Z,32.50
2023-07-12T10:51:43.768Z,32.90
2023-07-12T10:54:30.341Z,32.70
2023-07-12T10:57:29.108Z,32.00
2023-07-12T11:00:25.235Z,32.20
2023-07-12T11:03:17.697Z,32.60
2023-07-12T11:06:01.078Z,32.80
2023-07-12T11:08:41.029Z,32.10
2023-07-12T11:11:41.901Z,31.50
2023-07-12T11:14:50.565Z,30.90
2023-07-12T11:17:30.295Z,31.00
2023-07-12T11:20:22.098Z,31.20
2023-07-12T11:23:03.482Z,31.20
2023-07-12T11:25:48.274Z,30.40
2023-07-12T11:28:43.082Z,30.60
2023-07-12T11:31:33.262Z,30.30
2023-07-12T11:34:19.177Z,31.50
2023-07-12T11:36:58.102Z,30.90
2023-07-12T11:39:34.021Z,30.40
2023-07-12T11:42:28.376Z,30.50
2023-07-12T11:45:07.701Z,30.30
2023-07-12T11:47:47.620Z,30.20
2023-07-12T11:50:29.258Z,30.90
2023-07-12T11:53:05.852Z,31.30
2023-07-12T11:55:41.966Z,31.10
2023-07-12T11:58:23.786Z,31.20
2023-07-12T12:01:01.279Z,31.90
2023-07-12T12:03:38.511Z,31.40
2023-07-12T12:06:14.976Z,31.30
2023-07-12T12:08:55.504Z,31.10
2023-07-12T12:11:31.643Z,30.70
2023-07-12T12:14:24.013Z,31.00
2023-07-12T12:17:07.065Z,31.30
2023-07-12T12:19:50.176Z,31.50
2023-07-12T12:22:26.994Z,31.30
2023-07-12T12:25:03.151Z,31.30
2023-07-12T12:27:40.062Z,31.00
2023-07-12T12:30:15.892Z,30.90
2023-07-12T12:33:08.627Z,30.30
2023-07-12T12:35:53.988Z,31.00
2023-07-12T12:38:35.185Z,30.80
2023-07-12T12:41:18.172Z,31.10
2023-07-12T12:44:10.122Z,31.10
2023-07-12T12:53:27.120Z,31.60
2023-07-12T12:55:34.033Z,31.60
2023-07-12T12:59:43.934Z,31.40
2023-07-12T13:12:04.345Z,31.20
2023-07-12T13:17:01.910Z,31.60
2023-07-12T13:18:26.330Z,30.70
2023-07-12T13:21:25.972Z,30.70
2023-07-12T13:24:02.303Z,30.20
2023-07-12T13:26:40.691Z,30.20
2023-07-12T13:29:20.231Z,30.30
2023-07-12T13:31:56.364Z,30.50
2023-07-12T13:37:28.947Z,30.30
2023-07-12T13:40:08.296Z,30.10
2023-07-12T13:42:46.162Z,30.30
2023-07-12T13:45:33.861Z,30.30
2023-07-12T13:48:17.474Z,30.20
2023-07-12T13:50:53.498Z,30.30
2023-07-12T13:53:29.513Z,30.20
2023-07-12T13:56:44.800Z,29.90
2023-07-12T13:59:16.870Z,29.90
2023-07-12T14:04:35.371Z,30.00
2023-07-12T14:07:18.478Z,29.70
2023-07-12T14:10:18.434Z,30.00
2023-07-12T14:12:55.873Z,29.80
2023-07-12T14:15:31.831Z,29.60
2023-07-12T14:18:10.911Z,29.70
2023-07-12T14:20:49.630Z,29.50
2023-07-12T14:23:26.003Z,29.50
2023-07-12T14:26:02.033Z,29.40
2023-07-12T14:28:41.469Z,29.70
2023-07-12T14:31:23.787Z,29.20
2023-07-12T14:33:59.856Z,29.10
2023-07-12T14:36:35.790Z,29.30
2023-07-12T14:39:11.744Z,29.40
2023-07-12T14:41:47.699Z,28.70
2023-07-12T14:44:24.884Z,28.80
2023-07-12T14:47:00.960Z,28.60
2023-07-12T14:49:39.976Z,28.60
2023-07-12T14:52:27.135Z,28.90
2023-07-12T14:55:07.048Z,28.50
2023-07-12T15:00:24.235Z,28.50
2023-07-12T15:03:00.680Z,28.20
2023-07-12T15:05:36.702Z,28.20
2023-07-12T15:08:32.729Z,28.40
2023-07-12T15:11:35.079Z,28.60
2023-07-12T15:14:14.113Z,28.30
2023-07-12T15:16:53.310Z,28.50
2023-07-12T15:19:29.258Z,28.50
2023-07-12T15:22:05.365Z,28.80
2023-07-12T15:24:41.273Z,28.50
2023-07-12T15:27:18.705Z,28.40
2023-07-12T15:29:54.617Z,28.40
2023-07-12T15:32:30.545Z,29.20
2023-07-12T15:35:32.666Z,28.80
2023-07-12T15:38:10.231Z,29.00
2023-07-12T15:41:23.822Z,28.70
2023-07-12T15:44:00.011Z,28.80
2023-07-12T15:46:35.981Z,28.70
2023-07-12T15:49:11.966Z,29.00
2023-07-12T15:51:47.990Z,28.60
2023-07-12T15:54:29.322Z,28.60
2023-07-12T15:57:13.522Z,28.60
2023-07-12T15:59:49.425Z,28.10
2023-07-12T16:02:28.032Z,28.20
2023-07-12T16:05:05.326Z,28.40
2023-07-12T16:07:43.942Z,28.60
2023-07-12T16:10:20.547Z,28.60
2023-07-12T16:12:56.480Z,28.80
2023-07-12T16:15:33.154Z,28.70
2023-07-12T16:18:24.464Z,28.70
2023-07-12T16:21:01.646Z,29.00
2023-07-12T16:23:39.052Z,29.00
2023-07-12T16:26:21.973Z,28.30
2023-07-12T16:28:59.527Z,28.80
2023-07-12T16:31:44.841Z,29.00
2023-07-12T16:34:26.410Z,29.20
2023-07-12T16:37:03.317Z,29.00
2023-07-12T16:39:39.242Z,29.00
2023-07-12T16:42:23.954Z,29.00
2023-07-12T16:45:00.440Z,28.70
2023-07-12T16:47:36.604Z,28.70
2023-07-12T16:50:12.548Z,28.50
2023-07-12T16:52:48.666Z,28.60
2023-07-12T16:55:25.433Z,28.50
2023-07-12T16:58:01.351Z,28.50
2023-07-12T17:00:37.436Z,28.80
2023-07-12T17:03:13.377Z,28.70
2023-07-12T17:05:50.131Z,28.80
2023-07-12T17:08:29.026Z,29.00
2023-07-12T17:11:05.842Z,29.30
2023-07-12T17:13:45.942Z,29.40
2023-07-12T17:16:22.425Z,29.40
2023-07-12T17:19:01.867Z,29.50
2023-07-12T17:21:38.682Z,29.50
2023-07-12T17:24:16.997Z,29.60
2023-07-12T17:26:52.979Z,29.50
2023-07-12T17:29:29.627Z,29.60
2023-07-12T17:32:06.252Z,29.30
2023-07-12T17:34:43.135Z,29.20
2023-07-12T17:37:19.875Z,29.30
2023-07-12T17:40:07.850Z,29.00
2023-07-12T17:42:45.002Z,29.20
2023-07-12T17:45:20.970Z,29.30
2023-07-12T17:47:56.885Z,29.50
2023-07-12T17:50:35.024Z,29.30
2023-07-12T17:53:21.665Z,29.40
2023-07-12T17:55:59.369Z,29.50
2023-07-12T17:58:35.348Z,29.40
2023-07-12T18:01:18.037Z,29.60
2023-07-12T18:03:55.415Z,29.70
2023-07-12T18:06:35.038Z,29.90
2023-07-12T18:09:11.598Z,30.10
2023-07-12T18:11:48.141Z,30.00
2023-07-12T18:14:24.073Z,30.40
2023-07-12T18:16:59.995Z,30.40
2023-07-12T18:19:38.547Z,30.70
2023-07-12T18:22:21.675Z,30.80
2023-07-12T18:24:59.676Z,30.70
2023-07-12T18:27:35.906Z,30.70
2023-07-12T18:30:13.010Z,30.80
2023-07-12T18:32:49.029Z,30.80
2023-07-12T18:35:27.472Z,31.00
2023-07-12T18:38:05.013Z,30.80
2023-07-12T18:40:42.044Z,30.80
2023-07-12T18:43:27.188Z,30.30
2023-07-12T18:46:05.171Z,30.40
2023-07-12T18:48:43.376Z,30.40
2023-07-12T18:51:26.488Z,30.60
2023-07-12T18:54:03.303Z,30.80
2023-07-12T18:56:39.223Z,30.80
2023-07-12T18:59:16.034Z,30.70
2023-07-12T19:01:52.759Z,31.10
2023-07-12T19:04:28.892Z,31.10
2023-07-12T19:07:05.196Z,31.20
2023-07-12T19:09:41.378Z,31.30
2023-07-12T19:12:19.840Z,31.30
2023-07-12T19:15:02.055Z,31.10
2023-07-12T19:17:38.926Z,31.20
2023-07-12T19:20:16.347Z,31.40
2023-07-12T19:22:52.255Z,31.40
2023-07-12T19:25:28.946Z,31.40
2023-07-12T19:28:05.380Z,31.60
2023-07-12T19:30:41.859Z,31.60
2023-07-12T19:33:19.234Z,31.50
2023-07-12T19:35:55.206Z,31.60
2023-07-12T19:38:31.154Z,31.70
2023-07-12T19:41:15.260Z,31.70
2023-07-12T19:43:52.048Z,31.80
2023-07-12T19:46:28.045Z,31.80
2023-07-12T19:49:04.887Z,31.80
2023-07-12T19:51:43.434Z,31.90
2023-07-12T19:54:21.142Z,32.10
2023-07-12T19:56:57.149Z,32.20
2023-07-12T19:59:33.159Z,32.20
2023-07-12T20:02:31.373Z,32.40
2023-07-12T20:05:08.727Z,32.50
2023-07-12T20:07:46.478Z,32.50
2023-07-12T20:10:24.086Z,32.60
2023-07-12T20:13:00.036Z,32.60
2023-07-12T20:15:36.030Z,32.70
2023-07-12T20:18:12.016Z,32.80
2023-07-12T20:20:53.747Z,32.90
2023-07-12T20:23:29.732Z,33.10
2023-07-12T20:26:06.371Z,33.40
2023-07-12T20:28:42.597Z,33.30
2023-07-12T20:31:19.355Z,33.50
2023-07-12T20:33:55.384Z,33.60
2023-07-12T20:36:31.398Z,33.60
2023-07-12T20:39:07.310Z,33.50
2023-07-12T20:41:43.234Z,33.60
2023-07-12T20:44:19.825Z,33.70
2023-07-12T20:46:55.883Z,33.80
2023-07-12T20:49:32.370Z,33.90
2023-07-12T20:52:11.607Z,34.00
2023-07-12T20:54:47.590Z,34.20
2023-07-12T20:57:23.523Z,34.50
2023-07-12T21:00:01.208Z,34.30
2023-07-12T21:02:39.667Z,34.20
2023-07-12T21:05:18.355Z,34.30
2023-07-12T21:07:55.141Z,34.20
2023-07-12T21:10:31.178Z,34.20
2023-07-12T21:13:07.302Z,34.20
2023-07-12T21:15:43.330Z,34.40
2023-07-12T21:18:19.491Z,34.50
2023-07-12T21:20:55.686Z,34.60
2023-07-12T21:23:32.807Z,34.50
2023-07-12T21:26:09.484Z,34.50
2023-07-12T21:28:45.883Z,34.70
2023-07-12T21:31:23.204Z,34.80
2023-07-12T21:33:59.360Z,34.90
2023-07-12T21:36:35.386Z,34.80
2023-07-12T21:39:12.440Z,34.80
2023-07-12T21:41:48.488Z,35.00
2023-07-12T21:44:24.662Z,35.10
2023-07-12T21:47:00.735Z,35.30
2023-07-12T21:49:36.786Z,35.40
2023-07-12T21:52:12.883Z,35.50
2023-07-12T21:54:49.527Z,35.60
2023-07-12T21:57:25.607Z,35.60
2023-07-12T22:00:01.906Z,35.60
2023-07-12T22:02:46.682Z,35.90
2023-07-12T22:05:24.160Z,35.30
2023-07-12T22:08:00.220Z,35.20
2023-07-12T22:10:36.388Z,35.40
2023-07-12T22:13:15.019Z,35.50
2023-07-12T22:15:51.120Z,35.60
2023-07-12T22:18:37.754Z,35.50
2023-07-12T22:21:22.775Z,35.50
2023-07-12T22:23:58.923Z,35.40
2023-07-12T22:26:35.803Z,35.30
2023-07-12T22:29:11.838Z,35.20
2023-07-12T22:31:47.953Z,35.10
2023-07-12T22:34:23.962Z,35.20
2023-07-12T22:37:01.085Z,35.10
2023-07-12T22:39:37.177Z,35.00
2023-07-12T22:42:13.315Z,35.00
2023-07-12T22:44:51.506Z,34.80
2023-07-12T22:47:31.100Z,34.80
2023-07-12T22:50:08.582Z,34.80
2023-07-12T22:52:45.256Z,34.70
2023-07-12T22:55:21.569Z,34.50
2023-07-12T22:57:58.335Z,34.40
2023-07-12T23:00:34.689Z,34.40
2023-07-12T23:03:11.089Z,34.20
2023-07-12T23:05:49.167Z,34.20
2023-07-12T23:08:27.217Z,34.10
2023-07-12T23:11:03.418Z,33.70
2023-07-12T23:13:39.504Z,33.70
2023-07-12T23:16:24.722Z,33.70
2023-07-12T23:19:00.823Z,33.90
2023-07-12T23:21:36.831Z,33.80
2023-07-12T23:24:12.789Z,33.60
2023-07-12T23:26:48.722Z,33.60
2023-07-12T23:29:25.195Z,33.80
2023-07-12T23:32:04.419Z,33.40
2023-07-12T23:34:40.440Z,33.50
2023-07-12T23:37:16.395Z,33.60
2023-07-12T23:39:52.306Z,33.50
2023-07-12T23:42:28.293Z,33.60
2023-07-12T23:45:13.413Z,33.70
2023-07-12T23:47:51.922Z,33.60
2023-07-12T23:50:27.921Z,33.60
2023-07-12T23:53:05.718Z,33.70
2023-07-12T23:55:43.237Z,33.50
2023-07-12T23:58:21.969Z,33.60
